Terminal Aerodrome Forecast
Issued by NWS

Home | Current Version | Previous Version | Text Only | Print | Product List | Glossary On
Versions: 1 2 3 4 5 6 7 8 9 10 11 12 13 14 15 16 17 18 19 20 21 22 23 24 25 26 27 28 29 30
000
FTUS41 KBTV 152300
TAFMPV
TAF
KMPV 152321Z 1600/1624 18003KT P6SM BKN060 OVC120
     FM160700 VRB02KT P6SM -SHRA OVC035
      TEMPO 1609/1612 4SM -RA BR
     FM161400 29005KT P6SM BKN025
     FM161900 29006KT P6SM SCT040=

USA.gov is the U.S. government's official web portal to all federal, state and local government web resources and services.